Lajinha, Brazil
Current Conditions -  °F | °C
As of 7:30 AM on Saturday 29 Nov 2014 (Local Time) from SBIP Reporting Station
Drizzle Drizzle  
Wind Chill: 73°   Ceiling: 2000
Heat Index: 73°   Visibility: 3mi
Dew Point: 72°   Wind: 6mph
Humidity: 94%   Direction: 210°SSW
Pressure: 30"   Gusts: NA
Location:  20.15°S, 41.62°W
Report Text: SBIP 290930Z 21005KT 5000 -DZ SCT010 BKN020 OVC070 23/22 Q1016
Loading
Personal Weather Stations






























Interactive Weather Map New forecast layout! Learn more

10-Day Weather Forecast

Advertisements
Track Severe Weather on mobile